createdAt,value
2023-02-03T00:01:16.696Z,98483.09
2023-02-03T00:03:21.066Z,98477.91
2023-02-03T00:05:23.867Z,98483.06
2023-02-03T00:07:26.668Z,98479.63
2023-02-03T00:09:29.484Z,98474.47
2023-02-03T00:11:33.656Z,98478.75
2023-02-03T00:13:36.784Z,98477.03
2023-02-03T00:15:39.371Z,98483.97
2023-02-03T00:17:42.169Z,98478.78
2023-02-03T00:19:44.816Z,98479.63
2023-02-03T00:21:47.417Z,98476.19
2023-02-03T00:23:49.989Z,98473.56
2023-02-03T00:25:53.685Z,98477.88
2023-02-03T00:27:57.932Z,98477.03
2023-02-03T00:30:00.600Z,98481.34
2023-02-03T00:32:03.372Z,98481.34
2023-02-03T00:34:06.065Z,98476.16
2023-02-03T00:36:09.684Z,98477.91
2023-02-03T00:38:12.284Z,98480.47
2023-02-03T00:40:14.875Z,98471.84
2023-02-03T00:42:17.469Z,98477.00
2023-02-03T00:44:21.456Z,98472.69
2023-02-03T00:46:24.032Z,98484.78
2023-02-03T00:48:26.592Z,98475.28
2023-02-03T00:50:29.270Z,98481.28
2023-02-03T00:52:34.104Z,98477.03
2023-02-03T00:54:36.689Z,98484.78
2023-02-03T00:56:39.341Z,98481.31
2023-02-03T00:58:41.984Z,98483.00
2023-02-03T01:00:45.904Z,98479.53
2023-02-03T01:02:49.271Z,98479.56
2023-02-03T01:04:51.921Z,98483.91
2023-02-03T01:06:57.445Z,98488.22
2023-02-03T01:09:00.281Z,98495.09
2023-02-03T01:11:07.675Z,98491.66
2023-02-03T01:13:10.237Z,98485.63
2023-02-03T01:15:12.846Z,98494.25
2023-02-03T01:17:16.734Z,98493.38
2023-02-03T01:19:19.409Z,98489.09
2023-02-03T01:21:24.166Z,98497.72
2023-02-03T01:23:26.699Z,98490.81
2023-02-03T01:25:29.540Z,98477.84
2023-02-03T01:27:32.776Z,98480.44
2023-02-03T01:29:35.381Z,98470.09
2023-02-03T01:31:40.188Z,98468.38
2023-02-03T01:33:47.025Z,98460.63
2023-02-03T01:35:49.567Z,98446.84
2023-02-03T01:37:52.242Z,98437.34
2023-02-03T01:39:54.803Z,98425.25
2023-02-03T01:41:57.747Z,98419.22
2023-02-03T01:44:02.889Z,98410.59
2023-02-03T01:46:17.586Z,98419.22
2023-02-03T01:48:20.218Z,98428.72
2023-02-03T01:50:28.374Z,98435.59
2023-02-03T01:52:32.652Z,98420.94
2023-02-03T01:54:41.509Z,98411.44
2023-02-03T01:56:49.394Z,98412.31
2023-02-03T01:58:52.377Z,98407.13
2023-02-03T02:00:57.484Z,98414.88
2023-02-03T02:03:03.132Z,98418.31
2023-02-03T02:05:09.243Z,98421.81
2023-02-03T02:07:15.748Z,98426.09
2023-02-03T02:09:18.733Z,98443.34
2023-02-03T02:11:22.370Z,98443.34
2023-02-03T02:13:25.733Z,98443.34
2023-02-03T02:15:36.693Z,98438.19
2023-02-03T02:18:01.193Z,98451.97
2023-02-03T02:20:47.998Z,98456.28
2023-02-03T02:23:12.412Z,98449.41
2023-02-03T02:25:44.105Z,98445.09
2023-02-03T02:28:17.854Z,98424.38
2023-02-03T02:30:40.538Z,98430.38
2023-02-03T02:32:54.713Z,98417.44
2023-02-03T02:35:05.973Z,98395.03
2023-02-03T02:37:19.374Z,98378.66
2023-02-03T02:39:26.456Z,98373.47
2023-02-03T02:41:35.406Z,98370.03
2023-02-03T02:43:42.756Z,98377.78
2023-02-03T02:45:49.144Z,98381.22
2023-02-03T02:47:57.105Z,98394.19
2023-02-03T02:50:04.279Z,98386.41
2023-02-03T02:52:09.435Z,98383.84
2023-02-03T02:54:17.566Z,98388.16
2023-02-03T02:56:20.783Z,98389.88
2023-02-03T02:58:25.559Z,98379.50
2023-02-03T03:00:30.937Z,98377.78
2023-02-03T03:02:35.028Z,98368.31
2023-02-03T03:04:39.710Z,98370.03
2023-02-03T03:06:47.590Z,98350.19
2023-02-03T03:08:55.871Z,98359.69
2023-02-03T03:11:02.161Z,98368.31
2023-02-03T03:13:08.629Z,98371.75
2023-02-03T03:15:15.376Z,98376.06
2023-02-03T03:17:22.662Z,98371.78
2023-02-03T03:19:29.415Z,98372.63
2023-02-03T03:21:38.088Z,98380.41
2023-02-03T03:23:45.582Z,98381.25
2023-02-03T03:25:52.781Z,98379.53
2023-02-03T03:28:00.051Z,98370.88
2023-02-03T03:30:06.419Z,98367.44
2023-02-03T03:32:09.751Z,98368.31
2023-02-03T03:34:13.971Z,98368.28
2023-02-03T03:36:24.135Z,98370.91
2023-02-03T03:38:33.675Z,98381.25
2023-02-03T03:40:41.140Z,98366.56
2023-02-03T03:42:50.884Z,98373.47
2023-02-03T03:45:00.336Z,98363.97
2023-02-03T03:47:10.706Z,98382.13
2023-02-03T03:49:14.726Z,98398.50
2023-02-03T03:51:21.362Z,98404.56
2023-02-03T03:53:25.338Z,98409.72
2023-02-03T03:55:32.403Z,98429.59
2023-02-03T03:57:38.693Z,98422.66
2023-02-03T03:59:44.734Z,98425.25
2023-02-03T04:01:49.123Z,98420.94
2023-02-03T04:03:56.522Z,98428.69
2023-02-03T04:05:59.121Z,98433.88
2023-02-03T04:08:03.192Z,98447.69
2023-02-03T04:10:11.525Z,98439.91
2023-02-03T04:12:23.460Z,98443.38
2023-02-03T04:14:26.087Z,98441.66
2023-02-03T04:16:28.836Z,98454.56
2023-02-03T04:18:31.456Z,98460.63
2023-02-03T04:20:34.247Z,98452.00
2023-02-03T04:22:36.772Z,98450.25
2023-02-03T04:24:39.356Z,98441.63
2023-02-03T04:26:41.982Z,98443.38
2023-02-03T04:28:46.101Z,98445.09
2023-02-03T04:30:48.724Z,98443.38
2023-02-03T04:32:51.529Z,98440.78
2023-02-03T04:34:54.162Z,98434.75
2023-02-03T04:36:56.775Z,98437.34
2023-02-03T04:38:59.381Z,98433.88
2023-02-03T04:41:01.965Z,98449.41
2023-02-03T04:43:10.495Z,98446.81
2023-02-03T04:45:14.591Z,98440.78
2023-02-03T04:47:20.174Z,98425.25
2023-02-03T04:49:22.761Z,98411.44
2023-02-03T04:51:25.392Z,98414.94
2023-02-03T04:53:27.979Z,98417.47
2023-02-03T04:55:30.775Z,98411.47
2023-02-03T04:57:33.397Z,98408.88
2023-02-03T04:59:35.958Z,98399.34
2023-02-03T05:01:39.857Z,98403.69
2023-02-03T05:03:42.443Z,98395.06
2023-02-03T05:05:45.217Z,98391.59
2023-02-03T05:07:47.780Z,98387.28
2023-02-03T05:09:50.343Z,98390.75
2023-02-03T05:11:52.954Z,98396.75
2023-02-03T05:13:55.769Z,98394.19
2023-02-03T05:15:58.417Z,98413.19
2023-02-03T05:18:02.363Z,98414.88
2023-02-03T05:20:05.604Z,98405.38
2023-02-03T05:22:08.141Z,98414.91
2023-02-03T05:24:10.954Z,98406.25
2023-02-03T05:26:13.875Z,98414.03
2023-02-03T05:28:16.482Z,98406.28
2023-02-03T05:30:19.699Z,98414.03
2023-02-03T05:32:22.259Z,98408.00
2023-02-03T05:34:26.269Z,98414.91
2023-02-03T05:36:28.847Z,98414.91
2023-02-03T05:38:31.452Z,98413.19
2023-02-03T05:40:51.815Z,98413.16
2023-02-03T05:42:54.385Z,98420.94
2023-02-03T05:44:56.924Z,98424.41
2023-02-03T05:47:00.759Z,98425.25
2023-02-03T05:49:03.338Z,98439.09
2023-02-03T05:51:07.337Z,98445.97
2023-02-03T05:53:10.153Z,98436.47
2023-02-03T05:55:12.719Z,98455.47
2023-02-03T05:57:15.318Z,98468.41
2023-02-03T05:59:18.013Z,98467.53
2023-02-03T06:01:20.725Z,98451.97
2023-02-03T06:03:23.333Z,98444.22
2023-02-03T06:05:27.204Z,98449.38
2023-02-03T06:07:31.159Z,98435.59
2023-02-03T06:09:33.716Z,98434.72
2023-02-03T06:11:37.274Z,98424.38
2023-02-03T06:13:40.213Z,98429.56
2023-02-03T06:15:43.763Z,98428.72
2023-02-03T06:17:47.494Z,98423.53
2023-02-03T06:19:50.128Z,98438.19
2023-02-03T06:21:52.666Z,98450.25
2023-02-03T06:23:56.859Z,98443.38
2023-02-03T06:26:00.319Z,98446.84
2023-02-03T06:28:02.952Z,98449.41
2023-02-03T06:30:06.317Z,98446.84
2023-02-03T06:32:09.582Z,98414.03
2023-02-03T06:34:12.173Z,98419.22
2023-02-03T06:36:14.722Z,98415.78
2023-02-03T06:38:17.325Z,98421.78
2023-02-03T06:40:21.461Z,98415.75
2023-02-03T06:42:23.987Z,98407.13
2023-02-03T06:44:26.574Z,98401.97
2023-02-03T06:46:30.461Z,98411.47
2023-02-03T06:48:33.282Z,98423.53
2023-02-03T06:50:35.996Z,98414.03
2023-02-03T06:52:38.689Z,98420.06
2023-02-03T06:54:41.300Z,98432.16
2023-02-03T06:56:45.359Z,98434.75
2023-02-03T06:58:47.978Z,98430.44
2023-02-03T07:00:51.369Z,98413.19
2023-02-03T07:02:55.031Z,98397.63
2023-02-03T07:04:57.672Z,98401.97
2023-02-03T07:07:00.297Z,98398.50
2023-02-03T07:09:05.267Z,98389.88
2023-02-03T07:11:08.233Z,98378.66
2023-02-03T07:13:12.264Z,98381.25
2023-02-03T07:15:14.871Z,98386.44
2023-02-03T07:17:17.472Z,98383.81
2023-02-03T07:19:20.034Z,98370.91
2023-02-03T07:21:22.719Z,98380.38
2023-02-03T07:23:25.323Z,98389.00
2023-02-03T07:25:28.050Z,98382.13
2023-02-03T07:27:30.690Z,98383.00
2023-02-03T07:29:34.605Z,98387.28
2023-02-03T07:31:38.360Z,98387.28
2023-02-03T07:33:41.014Z,98389.88
2023-02-03T07:35:43.704Z,98382.13
2023-02-03T07:37:46.657Z,98391.59
2023-02-03T07:39:49.277Z,98385.53
2023-02-03T07:41:51.964Z,98371.75
2023-02-03T07:43:54.604Z,98375.19
2023-02-03T07:46:01.669Z,98376.94
2023-02-03T07:48:04.783Z,98373.50
2023-02-03T07:50:07.878Z,98384.69
2023-02-03T07:52:10.439Z,98380.38
2023-02-03T07:54:13.003Z,98376.91
2023-02-03T07:56:15.615Z,98384.72
2023-02-03T07:58:18.247Z,98382.13
2023-02-03T08:00:21.771Z,98402.84
2023-02-03T08:02:25.708Z,98409.72
2023-02-03T08:04:28.340Z,98421.81
2023-02-03T08:06:31.512Z,98429.59
2023-02-03T08:08:34.092Z,98427.88
2023-02-03T08:10:36.695Z,98427.84
2023-02-03T08:12:40.070Z,98433.91
2023-02-03T08:14:42.702Z,98436.50
2023-02-03T08:16:46.082Z,98432.19
2023-02-03T08:18:49.974Z,98443.41
2023-02-03T08:20:52.588Z,98455.50
2023-02-03T08:22:55.143Z,98463.25
2023-02-03T08:24:57.719Z,98453.75
2023-02-03T08:27:01.759Z,98454.63
2023-02-03T08:29:05.055Z,98454.63
2023-02-03T08:31:11.098Z,98467.59
2023-02-03T08:33:13.726Z,98467.53
2023-02-03T08:35:17.816Z,98455.47
2023-02-03T08:37:22.569Z,98464.09
2023-02-03T08:39:25.306Z,98467.56
2023-02-03T08:41:27.837Z,98467.53
2023-02-03T08:43:30.391Z,98473.56
2023-02-03T08:45:32.983Z,98471.00
2023-02-03T08:47:36.813Z,98468.44
2023-02-03T08:49:40.808Z,98468.41
2023-02-03T08:51:45.675Z,98468.41
2023-02-03T08:53:48.250Z,98465.81
2023-02-03T08:55:50.981Z,98469.31
2023-02-03T08:57:53.543Z,98468.44
2023-02-03T08:59:56.097Z,98472.75
2023-02-03T09:01:59.917Z,98490.88
2023-02-03T09:04:03.955Z,98477.94
2023-02-03T09:06:08.581Z,98480.53
2023-02-03T09:08:12.493Z,98471.03
2023-02-03T09:10:15.054Z,98459.78
2023-02-03T09:12:18.059Z,98463.25
2023-02-03T09:14:20.625Z,98474.47
2023-02-03T09:16:23.357Z,98479.66
2023-02-03T09:18:26.013Z,98476.16
2023-02-03T09:20:29.307Z,98475.31
2023-02-03T09:22:32.341Z,98468.41
2023-02-03T09:24:36.738Z,98480.50
2023-02-03T09:26:39.248Z,98469.31
2023-02-03T09:28:42.212Z,98470.16
2023-02-03T09:30:44.757Z,98460.66
2023-02-03T09:32:53.939Z,98454.63
2023-02-03T09:34:56.540Z,98448.59
2023-02-03T09:36:59.199Z,98452.88
2023-02-03T09:39:01.835Z,98452.03
2023-02-03T09:41:18.460Z,98452.00
2023-02-03T09:43:33.018Z,98452.81
2023-02-03T09:45:35.812Z,98458.88
2023-02-03T09:47:42.471Z,98460.56
2023-02-03T09:49:50.377Z,98464.06
2023-02-03T09:51:58.936Z,98450.19
2023-02-03T09:54:06.498Z,98458.03
2023-02-03T09:56:23.180Z,98460.63
2023-02-03T09:58:29.203Z,98468.38
2023-02-03T10:00:36.032Z,98466.66
2023-02-03T10:02:52.741Z,98465.78
2023-02-03T10:05:00.811Z,98459.69
2023-02-03T10:07:13.017Z,98462.25
2023-02-03T10:09:24.337Z,98452.81
2023-02-03T10:11:53.370Z,98451.97
2023-02-03T10:14:10.096Z,98445.91
2023-02-03T10:16:26.374Z,98443.25
2023-02-03T10:18:33.151Z,98442.41
2023-02-03T10:20:40.750Z,98432.88
2023-02-03T10:22:46.860Z,98429.41
2023-02-03T10:24:55.381Z,98430.28
2023-02-03T10:26:59.560Z,98428.53
2023-02-03T10:29:09.152Z,98419.03
2023-02-03T10:31:19.620Z,98425.09
2023-02-03T10:33:22.275Z,98413.03
2023-02-03T10:35:33.221Z,98456.22
2023-02-03T10:37:42.515Z,98444.94
2023-02-03T10:39:48.206Z,98444.09
2023-02-03T10:41:50.948Z,98443.22
2023-02-03T10:43:57.532Z,98450.06
2023-02-03T10:46:00.522Z,98445.72
2023-02-03T10:48:05.230Z,98447.53
2023-02-03T10:50:16.322Z,98462.22
2023-02-03T10:52:33.914Z,98451.00
2023-02-03T10:54:38.270Z,98454.47
2023-02-03T10:56:41.633Z,98467.41
2023-02-03T10:58:49.581Z,98459.69
2023-02-03T11:00:56.783Z,98450.16
2023-02-03T11:03:06.839Z,98443.25
2023-02-03T11:05:12.126Z,98420.81
2023-02-03T11:07:25.879Z,98413.88
2023-02-03T11:09:33.922Z,98421.66
2023-02-03T11:11:41.506Z,98409.59
2023-02-03T11:13:44.367Z,98402.66
2023-02-03T11:15:56.319Z,98385.38
2023-02-03T11:17:58.923Z,98389.63
2023-02-03T11:20:13.713Z,98375.84
2023-02-03T11:22:29.771Z,98380.19
2023-02-03T11:24:37.933Z,98381.06
2023-02-03T11:26:45.105Z,98369.78
2023-02-03T11:28:51.492Z,98370.66
2023-02-03T11:30:59.374Z,98366.31
2023-02-03T11:33:03.044Z,98367.16
2023-02-03T11:35:16.996Z,98368.06
2023-02-03T11:37:29.497Z,98374.94
2023-02-03T11:39:35.653Z,98384.41
2023-02-03T11:41:39.497Z,98397.31
2023-02-03T11:43:42.076Z,98399.06
2023-02-03T11:45:46.649Z,98379.19
2023-02-03T11:47:56.036Z,98372.34
2023-02-03T11:50:20.220Z,98377.47
2023-02-03T11:52:49.322Z,98380.09
2023-02-03T11:55:03.839Z,98381.78
2023-02-03T11:57:30.439Z,98385.28
2023-02-03T11:59:47.201Z,98397.38
2023-02-03T12:02:21.255Z,98419.06
2023-02-03T12:04:40.382Z,98399.16
2023-02-03T12:07:06.080Z,98380.97
2023-02-03T12:09:23.513Z,98368.88
2023-02-03T12:11:40.007Z,98358.50
2023-02-03T12:14:06.742Z,98353.25
2023-02-03T12:16:27.850Z,98367.16
2023-02-03T12:18:41.940Z,98365.44
2023-02-03T12:21:01.823Z,98370.66
2023-02-03T12:23:16.045Z,98355.91
2023-02-03T12:25:37.955Z,98355.84
2023-02-03T12:27:50.508Z,98368.88
2023-02-03T12:29:58.624Z,98371.47
2023-02-03T12:32:13.232Z,98365.41
2023-02-03T12:34:22.031Z,98353.38
2023-02-03T12:36:30.264Z,98349.91
2023-02-03T12:38:37.759Z,98352.53
2023-02-03T12:40:49.163Z,98361.97
2023-02-03T12:42:57.343Z,98365.47
2023-02-03T12:45:05.356Z,98362.88
2023-02-03T12:47:15.990Z,98357.59
2023-02-03T12:49:35.172Z,98331.69
2023-02-03T12:51:43.673Z,98330.91
2023-02-03T12:53:54.104Z,98326.53
2023-02-03T12:56:02.843Z,98317.81
2023-02-03T12:58:10.254Z,98314.38
2023-02-03T13:00:26.839Z,98305.63
2023-02-03T13:02:34.995Z,98301.41
2023-02-03T13:04:45.606Z,98311.69
2023-02-03T13:06:54.021Z,98309.16
2023-02-03T13:09:02.324Z,98303.91
2023-02-03T13:11:21.534Z,98297.00
2023-02-03T13:13:33.865Z,98269.38
2023-02-03T13:15:40.260Z,98246.94
2023-02-03T13:17:52.383Z,98241.75
2023-02-03T13:19:59.230Z,98240.81
2023-02-03T13:22:03.139Z,98228.78
2023-02-03T13:24:06.515Z,98246.06
2023-02-03T13:26:51.090Z,98248.63
2023-02-03T13:29:08.973Z,98265.13
2023-02-03T13:31:36.085Z,98246.16
2023-02-03T13:34:00.525Z,98238.34
2023-02-03T13:36:18.319Z,98238.34
2023-02-03T13:38:40.130Z,98259.06
2023-02-03T13:40:55.780Z,98270.31
2023-02-03T13:43:01.600Z,98291.84
2023-02-03T13:45:10.478Z,98294.50
2023-02-03T13:47:17.711Z,98286.72
2023-02-03T13:49:26.578Z,98295.31
2023-02-03T13:51:34.568Z,98283.34
2023-02-03T13:53:41.336Z,98289.28
2023-02-03T13:55:46.537Z,98280.59
2023-02-03T13:57:52.793Z,98274.72
2023-02-03T13:59:55.441Z,98282.38
2023-02-03T14:02:32.273Z,98261.69
2023-02-03T14:04:55.069Z,98276.38
2023-02-03T14:07:02.694Z,98266.88
2023-02-03T14:09:20.941Z,98256.56
2023-02-03T14:11:43.087Z,98268.59
2023-02-03T14:13:45.638Z,98267.78
2023-02-03T14:18:46.997Z,98268.56
2023-02-03T14:20:57.309Z,98267.72
2023-02-03T14:23:07.865Z,98274.66
2023-02-03T14:25:10.545Z,98285.00
2023-02-03T14:27:19.977Z,98265.91
2023-02-03T14:29:27.283Z,98277.22
2023-02-03T14:31:29.958Z,98281.63
2023-02-03T14:34:06.768Z,98278.91
2023-02-03T14:36:37.956Z,98285.97
2023-02-03T14:38:40.607Z,98291.09
2023-02-03T14:40:52.130Z,98303.06
2023-02-03T14:43:18.759Z,98297.03
2023-02-03T14:45:36.915Z,98290.19
2023-02-03T14:47:57.916Z,98282.34
2023-02-03T14:50:14.517Z,98301.41
2023-02-03T14:52:43.099Z,98291.00
2023-02-03T14:55:03.639Z,98288.47
2023-02-03T14:57:19.652Z,98307.47
2023-02-03T14:59:26.180Z,98299.69
2023-02-03T15:02:07.889Z,98288.50
2023-02-03T15:04:25.384Z,98300.56
2023-02-03T15:06:40.802Z,98293.66
2023-02-03T15:08:48.486Z,98296.25
2023-02-03T15:10:51.058Z,98305.84
2023-02-03T15:12:55.127Z,98304.06
2023-02-03T15:15:20.095Z,98304.13
2023-02-03T15:17:25.244Z,98294.53
2023-02-03T15:19:33.445Z,98299.69
2023-02-03T15:21:42.734Z,98297.94
2023-02-03T15:23:49.274Z,98357.63
2023-02-03T15:25:55.790Z,98300.63
2023-02-03T15:28:11.983Z,98309.25
2023-02-03T15:30:18.956Z,98296.28
2023-02-03T15:32:29.171Z,98304.94
2023-02-03T15:34:37.446Z,98311.84
2023-02-03T15:36:45.176Z,98311.88
2023-02-03T15:38:52.644Z,98300.66
2023-02-03T15:40:58.763Z,98291.19
2023-02-03T15:43:04.949Z,98297.22
2023-02-03T15:45:18.858Z,98286.84
2023-02-03T15:47:29.370Z,98296.34
2023-02-03T15:49:39.055Z,98291.22
2023-02-03T15:51:46.070Z,98305.91
2023-02-03T15:53:56.265Z,98312.78
2023-02-03T15:56:04.282Z,98307.50
2023-02-03T15:58:08.185Z,98313.66
2023-02-03T16:00:26.180Z,98318.72
2023-02-03T16:02:32.372Z,98321.34
2023-02-03T16:04:36.288Z,98317.03
2023-02-03T16:06:43.614Z,98315.31
2023-02-03T16:08:48.127Z,98317.91
2023-02-03T16:10:50.680Z,98315.34
2023-02-03T16:12:53.337Z,98307.56
2023-02-03T16:14:57.750Z,98302.44
2023-02-03T16:17:05.250Z,98296.34
2023-02-03T16:19:14.899Z,98302.41
2023-02-03T16:21:26.748Z,98300.66
2023-02-03T16:23:29.839Z,98306.72
2023-02-03T16:25:34.423Z,98314.47
2023-02-03T16:27:37.109Z,98311.97
2023-02-03T16:29:57.585Z,98322.28
2023-02-03T16:32:18.974Z,98325.75
2023-02-03T16:34:39.002Z,98327.47
2023-02-03T16:37:02.113Z,98335.25
2023-02-03T16:39:29.376Z,98317.06
2023-02-03T16:41:50.537Z,98317.16
2023-02-03T16:44:10.904Z,98324.97
2023-02-03T16:46:31.191Z,98331.00
2023-02-03T16:48:51.553Z,98328.44
2023-02-03T16:50:58.225Z,98323.19
2023-02-03T16:53:03.251Z,98330.06
2023-02-03T16:55:06.911Z,98332.72
2023-02-03T16:57:09.474Z,98328.44
2023-02-03T16:59:13.469Z,98336.19
2023-02-03T17:01:16.082Z,98341.31
2023-02-03T17:03:21.059Z,98340.50
2023-02-03T17:05:23.625Z,98362.13
2023-02-03T17:07:26.205Z,98346.63
2023-02-03T17:09:34.885Z,98356.09
2023-02-03T17:11:37.520Z,98353.44
2023-02-03T17:13:40.121Z,98356.91
2023-02-03T17:15:43.960Z,98359.53
2023-02-03T17:17:46.814Z,98354.28
2023-02-03T17:19:49.386Z,98347.41
2023-02-03T17:21:53.305Z,98337.91
2023-02-03T17:23:56.266Z,98356.91
2023-02-03T17:26:00.201Z,98356.09
2023-02-03T17:28:03.011Z,98368.13
2023-02-03T17:30:06.637Z,98360.41
2023-02-03T17:32:09.422Z,98356.03
2023-02-03T17:34:12.007Z,98353.44
2023-02-03T17:36:16.333Z,98357.75
2023-02-03T17:38:18.896Z,98351.72
2023-02-03T17:54:24.896Z,98386.31
2023-02-03T17:56:27.865Z,98381.09
2023-02-03T17:58:31.777Z,98393.22
2023-02-03T18:00:34.341Z,98386.28
2023-02-03T18:02:36.933Z,98388.84
2023-02-03T18:04:39.547Z,98388.00
2023-02-03T18:06:42.304Z,98378.50
2023-02-03T18:08:45.671Z,98377.63
2023-02-03T18:10:48.222Z,98390.63
2023-02-03T18:12:50.788Z,98404.47
2023-02-03T18:14:54.732Z,98397.53
2023-02-03T18:16:57.389Z,98394.09
2023-02-03T18:19:02.716Z,98405.34
2023-02-03T18:21:05.885Z,98403.59
2023-02-03T18:23:08.918Z,98397.59
2023-02-03T18:25:12.621Z,98392.41
2023-02-03T18:27:17.114Z,98405.34
2023-02-03T18:29:20.300Z,98395.00
2023-02-03T18:31:25.288Z,98397.56
2023-02-03T18:33:28.698Z,98390.69
2023-02-03T18:35:33.526Z,98391.53
2023-02-03T18:37:36.099Z,98397.59
2023-02-03T18:39:38.742Z,98389.81
2023-02-03T18:41:41.278Z,98392.41
2023-02-03T18:43:44.826Z,98385.50
2023-02-03T18:45:47.378Z,98391.56
2023-02-03T18:47:51.291Z,98382.94
2023-02-03T18:49:53.863Z,98392.44
2023-02-03T18:51:56.412Z,98398.47
2023-02-03T18:54:00.001Z,98401.06
2023-02-03T18:56:02.648Z,98389.88
2023-02-03T18:58:05.466Z,98391.59
2023-02-03T19:00:09.297Z,98388.09
2023-02-03T19:02:12.751Z,98387.28
2023-02-03T19:04:16.657Z,98383.81
2023-02-03T19:06:19.499Z,98383.78
2023-02-03T19:08:22.374Z,98390.69
2023-02-03T19:10:24.957Z,98388.09
2023-02-03T19:12:27.658Z,98400.16
2023-02-03T19:14:30.287Z,98380.28
2023-02-03T19:16:33.020Z,98395.00
2023-02-03T19:18:36.231Z,98376.03
2023-02-03T19:20:41.342Z,98374.28
2023-02-03T19:22:44.250Z,98382.88
2023-02-03T19:24:46.908Z,98381.22
2023-02-03T19:26:49.447Z,98380.34
2023-02-03T19:28:52.567Z,98372.59
2023-02-03T19:31:00.025Z,98386.41
2023-02-03T19:33:08.465Z,98385.50
2023-02-03T19:35:11.051Z,98385.53
2023-02-03T19:37:17.189Z,98400.19
2023-02-03T19:39:21.085Z,98391.56
2023-02-03T19:41:25.644Z,98389.00
2023-02-03T19:43:28.312Z,98386.44
2023-02-03T19:45:30.928Z,98389.88
2023-02-03T19:47:33.666Z,98395.06
2023-02-03T19:49:36.284Z,98396.78
2023-02-03T19:51:39.097Z,98401.91
2023-02-03T19:53:42.999Z,98391.53
2023-02-03T19:55:46.420Z,98395.03
2023-02-03T19:57:49.845Z,98400.22
2023-02-03T19:59:52.401Z,98412.28
2023-02-03T20:01:56.616Z,98422.66
2023-02-03T20:04:00.543Z,98421.81
2023-02-03T20:06:03.992Z,98428.72
2023-02-03T20:08:07.047Z,98430.44
2023-02-03T20:10:12.205Z,98429.56
2023-02-03T20:12:14.783Z,98443.41
2023-02-03T20:14:18.980Z,98439.97
2023-02-03T20:16:21.719Z,98437.34
2023-02-03T20:18:24.386Z,98426.13
2023-02-03T20:20:27.155Z,98428.75
2023-02-03T20:22:29.694Z,98420.97
2023-02-03T20:24:32.373Z,98419.22
2023-02-03T20:26:36.294Z,98433.91
2023-02-03T20:28:39.838Z,98433.88
2023-02-03T20:30:42.703Z,98433.03
2023-02-03T20:32:45.289Z,98419.22
2023-02-03T20:34:47.904Z,98425.25
2023-02-03T20:36:50.554Z,98419.22
2023-02-03T20:38:53.183Z,98408.00
2023-02-03T20:40:55.888Z,98400.22
2023-02-03T20:43:05.886Z,98400.25
2023-02-03T20:45:13.495Z,98407.16
2023-02-03T20:47:18.894Z,98407.16
2023-02-03T20:49:21.652Z,98409.72
2023-02-03T20:51:24.672Z,98419.22
2023-02-03T20:53:27.714Z,98410.59
2023-02-03T20:55:30.346Z,98416.63
2023-02-03T20:57:34.033Z,98413.19
2023-02-03T20:59:38.427Z,98414.88
2023-02-03T21:01:41.267Z,98417.50
2023-02-03T21:04:02.194Z,98419.22
2023-02-03T21:06:13.958Z,98427.00
2023-02-03T21:08:18.841Z,98428.72
2023-02-03T21:10:25.100Z,98421.78
2023-02-03T21:12:29.162Z,98428.72
2023-02-03T21:14:40.082Z,98430.44
2023-02-03T21:16:42.663Z,98445.09
2023-02-03T21:18:49.120Z,98439.06
2023-02-03T21:20:52.422Z,98433.91
2023-02-03T21:22:55.188Z,98438.22
2023-02-03T21:24:59.365Z,98448.59
2023-02-03T21:27:02.618Z,98428.72
2023-02-03T21:29:05.167Z,98425.25
2023-02-03T21:31:20.276Z,98421.78
2023-02-03T21:33:36.269Z,98419.22
2023-02-03T21:35:39.248Z,98415.78
2023-02-03T21:37:42.881Z,98413.19
2023-02-03T21:39:46.575Z,98416.63
2023-02-03T21:41:49.142Z,98413.22
2023-02-03T21:43:52.940Z,98421.78
2023-02-03T21:45:55.556Z,98428.72
2023-02-03T21:48:00.040Z,98421.78
2023-02-03T21:50:03.295Z,98419.22
2023-02-03T21:52:06.266Z,98423.53
2023-02-03T21:54:24.400Z,98415.72
2023-02-03T21:56:28.741Z,98422.66
2023-02-03T21:58:35.749Z,98429.56
2023-02-03T22:00:42.944Z,98430.44
2023-02-03T22:02:57.296Z,98422.69
2023-02-03T22:05:01.839Z,98420.97
2023-02-03T22:07:15.939Z,98427.84
2023-02-03T22:09:19.839Z,98430.44
2023-02-03T22:11:24.260Z,98423.56
2023-02-03T22:13:26.863Z,98425.25
2023-02-03T22:15:29.462Z,98433.03
2023-02-03T22:17:32.129Z,98433.91
2023-02-03T22:19:34.702Z,98437.34
2023-02-03T22:21:38.682Z,98423.50
2023-02-03T22:23:41.542Z,98436.50
2023-02-03T22:25:44.149Z,98425.28
2023-02-03T22:27:46.742Z,98431.31
2023-02-03T22:29:49.385Z,98432.13
2023-02-03T22:31:52.026Z,98434.72
2023-02-03T22:33:54.705Z,98429.53
2023-02-03T22:35:57.278Z,98434.72
2023-02-03T22:38:01.182Z,98432.16
2023-02-03T22:40:03.962Z,98431.31
2023-02-03T22:42:06.647Z,98440.78
2023-02-03T22:44:11.655Z,98443.38
2023-02-03T22:46:14.322Z,98435.63
2023-02-03T22:48:16.996Z,98446.81
2023-02-03T22:50:24.720Z,98448.56
2023-02-03T22:52:30.101Z,98452.03
2023-02-03T22:54:36.806Z,98441.66
2023-02-03T22:56:39.376Z,98444.25
2023-02-03T22:58:41.962Z,98451.16
2023-02-03T23:00:46.668Z,98459.81
2023-02-03T23:02:50.045Z,98453.78
2023-02-03T23:04:52.776Z,98453.75
2023-02-03T23:06:55.327Z,98448.56
2023-02-03T23:08:57.900Z,98450.28
2023-02-03T23:11:01.777Z,98460.66
2023-02-03T23:13:04.324Z,98463.25
2023-02-03T23:15:07.815Z,98454.63
2023-02-03T23:17:10.366Z,98452.88
2023-02-03T23:19:12.972Z,98458.94
2023-02-03T23:21:15.496Z,98458.06
2023-02-03T23:23:18.063Z,98451.16
2023-02-03T23:25:20.642Z,98453.75
2023-02-03T23:27:24.702Z,98455.50
2023-02-03T23:29:27.281Z,98452.91
2023-02-03T23:31:29.986Z,98455.50
2023-02-03T23:33:32.660Z,98456.31
2023-02-03T23:35:46.258Z,98449.44
2023-02-03T23:37:49.226Z,98455.47
2023-02-03T23:39:51.786Z,98446.84
2023-02-03T23:41:54.454Z,98437.34
2023-02-03T23:43:58.325Z,98442.53
2023-02-03T23:46:00.876Z,98435.63
2023-02-03T23:48:03.438Z,98441.66
2023-02-03T23:50:06.902Z,98440.78
2023-02-03T23:52:09.515Z,98440.78
2023-02-03T23:54:12.761Z,98439.91
2023-02-03T23:56:15.333Z,98438.19
2023-02-03T23:58:17.885Z,98445.97
